createdAt,value
2019-05-26T00:01:02.470Z,63.20
2019-05-26T00:03:29.328Z,63.10
2019-05-26T00:05:56.329Z,63.40
2019-05-26T00:08:23.212Z,63.50
2019-05-26T00:10:50.052Z,63.30
2019-05-26T00:13:17.067Z,63.40
2019-05-26T00:15:43.671Z,63.00
2019-05-26T00:18:11.208Z,63.10
2019-05-26T00:20:39.235Z,62.90
2019-05-26T00:23:08.493Z,62.70
2019-05-26T00:25:35.391Z,62.50
2019-05-26T00:28:02.237Z,62.80
2019-05-26T00:30:30.499Z,63.10
2019-05-26T00:32:57.448Z,63.20
2019-05-26T00:35:24.635Z,63.20
2019-05-26T00:37:51.601Z,63.70
2019-05-26T00:40:20.287Z,63.70
2019-05-26T00:42:53.609Z,62.90
2019-05-26T00:45:18.652Z,62.60
2019-05-26T00:47:45.626Z,62.40
2019-05-26T00:50:12.977Z,62.50
2019-05-26T00:52:39.907Z,62.60
2019-05-26T00:55:07.047Z,62.70
2019-05-26T00:57:34.503Z,62.70
2019-05-26T01:00:01.464Z,62.80
2019-05-26T01:02:29.684Z,63.00
2019-05-26T01:04:56.469Z,63.40
2019-05-26T01:07:23.790Z,63.40
2019-05-26T01:09:50.629Z,62.70
2019-05-26T01:12:21.649Z,63.40
2019-05-26T01:14:51.723Z,63.50
2019-05-26T01:17:18.878Z,63.80
2019-05-26T01:19:46.217Z,64.20
2019-05-26T01:22:13.042Z,64.40
2019-05-26T01:24:40.706Z,65.00
2019-05-26T01:27:09.186Z,65.50
2019-05-26T01:29:36.064Z,65.70
2019-05-26T01:32:03.654Z,65.50
2019-05-26T01:34:30.563Z,65.60
2019-05-26T01:36:59.658Z,66.10
2019-05-26T01:39:27.013Z,65.90
2019-05-26T01:41:54.183Z,65.80
2019-05-26T01:44:21.758Z,66.10
2019-05-26T01:46:48.979Z,66.20
2019-05-26T01:49:15.909Z,66.50
2019-05-26T01:51:42.956Z,66.40
2019-05-26T01:54:12.063Z,66.40
2019-05-26T01:56:38.988Z,65.90
2019-05-26T01:59:05.925Z,65.60
2019-05-26T02:01:33.242Z,65.10
2019-05-26T02:04:00.223Z,65.00
2019-05-26T02:06:28.512Z,65.40
2019-05-26T02:08:56.293Z,66.30
2019-05-26T02:11:23.610Z,66.60
2019-05-26T02:13:50.532Z,67.10
2019-05-26T02:16:18.496Z,67.80
2019-05-26T02:18:47.268Z,68.70
2019-05-26T02:21:45.712Z,68.80
2019-05-26T02:24:37.702Z,69.00
2019-05-26T02:27:04.462Z,69.50
2019-05-26T02:29:35.019Z,70.30
2019-05-26T02:32:21.414Z,71.40
2019-05-26T02:35:33.943Z,72.20
2019-05-26T02:38:06.479Z,72.50
2019-05-26T02:40:32.837Z,72.40
2019-05-26T02:43:46.608Z,72.20
2019-05-26T02:46:13.443Z,71.90
2019-05-26T02:48:40.527Z,71.70
2019-05-26T02:51:19.568Z,71.50
2019-05-26T02:53:46.685Z,71.80
2019-05-26T02:56:13.914Z,72.00
2019-05-26T02:59:07.402Z,71.90
2019-05-26T03:01:28.365Z,72.10
2019-05-26T03:03:57.470Z,72.60
2019-05-26T03:07:13.573Z,73.10
2019-05-26T03:10:19.638Z,72.60
2019-05-26T03:12:03.983Z,73.00
2019-05-26T03:14:42.533Z,73.70
2019-05-26T03:17:09.727Z,73.60
2019-05-26T03:19:40.105Z,73.00
2019-05-26T03:22:07.326Z,72.90
2019-05-26T03:24:37.431Z,73.30
2019-05-26T03:27:04.887Z,73.30
2019-05-26T03:29:31.757Z,74.40
2019-05-26T03:31:58.585Z,74.70
2019-05-26T03:34:25.858Z,74.90
2019-05-26T03:36:52.880Z,75.10
2019-05-26T03:39:20.130Z,74.90
2019-05-26T03:41:47.016Z,75.30
2019-05-26T03:44:14.130Z,76.10
2019-05-26T03:46:41.360Z,76.40
2019-05-26T03:49:08.524Z,76.20
2019-05-26T03:51:35.465Z,76.60
2019-05-26T03:54:02.566Z,76.20
2019-05-26T03:56:32.548Z,76.60
2019-05-26T03:58:59.387Z,76.60
2019-05-26T04:01:26.965Z,76.50
2019-05-26T04:03:54.163Z,76.60
2019-05-26T04:06:21.356Z,76.60
2019-05-26T04:08:48.523Z,76.50
2019-05-26T04:11:15.937Z,75.80
2019-05-26T04:13:47.884Z,75.30
2019-05-26T04:16:14.963Z,75.00
2019-05-26T04:21:46.875Z,75.60
2019-05-26T04:24:13.985Z,75.40
2019-05-26T04:26:41.798Z,75.80
2019-05-26T04:29:10.659Z,76.40
2019-05-26T04:31:37.507Z,76.90
2019-05-26T04:34:04.358Z,77.70
2019-05-26T04:36:31.459Z,78.50
2019-05-26T04:38:58.351Z,78.60
2019-05-26T04:41:25.236Z,77.60
2019-05-26T04:43:53.161Z,77.00
2019-05-26T04:46:28.918Z,77.00
2019-05-26T04:48:56.655Z,77.70
2019-05-26T04:51:23.570Z,77.60
2019-05-26T04:53:50.382Z,77.40
2019-05-26T04:56:19.067Z,77.90
2019-05-26T04:58:46.231Z,77.70
2019-05-26T05:01:13.458Z,77.00
2019-05-26T05:03:43.322Z,76.00
2019-05-26T05:06:12.178Z,75.40
2019-05-26T05:08:41.958Z,75.60
2019-05-26T05:11:09.084Z,76.00
2019-05-26T05:13:36.164Z,75.70
2019-05-26T05:16:03.012Z,75.50
2019-05-26T05:18:32.346Z,75.80
2019-05-26T05:20:59.413Z,76.10
2019-05-26T05:23:26.890Z,76.20
2019-05-26T05:25:57.114Z,78.20
2019-05-26T05:28:24.572Z,77.00
2019-05-26T05:30:51.538Z,78.30
2019-05-26T05:33:18.961Z,78.00
2019-05-26T05:35:46.317Z,77.50
2019-05-26T05:38:13.810Z,77.70
2019-05-26T05:40:56.366Z,77.70
2019-05-26T05:43:10.339Z,77.60
2019-05-26T05:45:39.982Z,77.10
2019-05-26T05:48:09.386Z,77.20
2019-05-26T05:50:39.050Z,77.00
2019-05-26T05:53:05.413Z,76.90
2019-05-26T05:55:32.225Z,77.60
2019-05-26T05:57:59.498Z,77.90
2019-05-26T06:00:27.266Z,77.60
2019-05-26T06:02:54.311Z,77.00
2019-05-26T06:08:22.994Z,77.20
2019-05-26T06:10:50.229Z,78.00
2019-05-26T06:16:04.505Z,77.70
2019-05-26T06:18:31.804Z,76.70
2019-05-26T06:20:58.951Z,75.80
2019-05-26T06:23:27.948Z,76.10
2019-05-26T06:25:54.802Z,76.50
2019-05-26T06:28:29.727Z,77.30
2019-05-26T06:31:11.920Z,77.80
2019-05-26T06:34:15.672Z,77.40
2019-05-26T06:36:30.456Z,77.10
2019-05-26T06:38:58.454Z,76.70
2019-05-26T06:41:33.343Z,76.00
2019-05-26T06:44:53.140Z,75.80
2019-05-26T06:50:25.136Z,76.20
2019-05-26T06:52:52.248Z,76.80
2019-05-26T06:55:23.569Z,76.80
2019-05-26T06:57:50.884Z,76.20
2019-05-26T07:00:20.508Z,75.90
2019-05-26T07:02:47.287Z,76.20
2019-05-26T07:05:20.272Z,76.00
2019-05-26T07:07:49.606Z,76.30
2019-05-26T07:10:17.547Z,76.10
2019-05-26T07:13:04.441Z,75.70
2019-05-26T07:15:31.303Z,76.00
2019-05-26T07:17:58.285Z,76.30
2019-05-26T07:20:26.210Z,76.30
2019-05-26T07:22:52.827Z,76.40
2019-05-26T07:25:19.969Z,75.60
2019-05-26T07:27:46.786Z,74.90
2019-05-26T07:30:14.246Z,75.60
2019-05-26T07:32:41.527Z,76.00
2019-05-26T07:35:08.788Z,76.40
2019-05-26T07:37:35.856Z,76.00
2019-05-26T07:40:05.792Z,75.90
2019-05-26T07:42:33.815Z,76.10
2019-05-26T07:45:00.889Z,76.20
2019-05-26T07:47:27.671Z,76.50
2019-05-26T07:49:54.868Z,76.20
2019-05-26T07:52:21.978Z,75.70
2019-05-26T07:54:49.048Z,75.60
2019-05-26T07:57:15.985Z,75.70
2019-05-26T07:59:43.019Z,75.70
2019-05-26T08:02:10.126Z,76.00
2019-05-26T08:04:37.042Z,75.90
2019-05-26T08:07:04.391Z,76.10
2019-05-26T08:09:32.475Z,76.60
2019-05-26T08:11:59.287Z,76.00
2019-05-26T08:14:28.027Z,75.80
2019-05-26T08:16:54.693Z,75.60
2019-05-26T08:19:21.651Z,75.10
2019-05-26T08:21:48.317Z,74.30
2019-05-26T08:24:15.095Z,74.00
2019-05-26T08:26:41.498Z,74.00
2019-05-26T08:29:08.399Z,73.50
2019-05-26T08:31:35.130Z,73.00
2019-05-26T08:34:03.156Z,72.20
2019-05-26T08:36:30.681Z,71.40
2019-05-26T08:38:57.561Z,72.50
2019-05-26T08:41:24.659Z,72.90
2019-05-26T08:43:51.422Z,71.70
2019-05-26T08:46:18.467Z,71.30
2019-05-26T08:48:46.068Z,71.40
2019-05-26T08:51:12.905Z,71.80
2019-05-26T08:53:39.796Z,71.80
2019-05-26T08:56:06.891Z,71.90
2019-05-26T08:58:33.931Z,71.20
2019-05-26T09:01:00.577Z,70.20
2019-05-26T09:03:27.201Z,68.40
2019-05-26T09:05:53.956Z,65.90
2019-05-26T09:08:20.697Z,62.70
2019-05-26T09:10:47.254Z,59.00
2019-05-26T09:13:13.873Z,57.10
2019-05-26T09:15:41.891Z,55.40
2019-05-26T09:18:08.449Z,55.40
2019-05-26T09:20:34.945Z,55.50
2019-05-26T09:23:02.649Z,55.60
2019-05-26T09:25:29.193Z,55.20
2019-05-26T09:27:55.623Z,54.90
2019-05-26T09:30:22.762Z,55.40
2019-05-26T09:32:49.296Z,56.20
2019-05-26T09:35:16.298Z,55.70
2019-05-26T09:37:42.817Z,55.90
2019-05-26T09:40:09.846Z,56.30
2019-05-26T09:42:36.397Z,55.70
2019-05-26T09:45:05.935Z,54.40
2019-05-26T09:47:32.549Z,53.40
2019-05-26T09:50:00.328Z,52.90
2019-05-26T09:52:26.834Z,52.10
2019-05-26T09:54:53.695Z,52.10
2019-05-26T09:57:20.131Z,52.30
2019-05-26T09:59:46.671Z,51.50
2019-05-26T10:02:13.274Z,50.90
2019-05-26T10:04:40.508Z,50.60
2019-05-26T10:07:12.183Z,50.60
2019-05-26T10:09:37.192Z,50.60
2019-05-26T10:12:06.685Z,50.50
2019-05-26T10:14:33.081Z,49.70
2019-05-26T10:16:59.880Z,49.30
2019-05-26T10:19:26.687Z,49.00
2019-05-26T10:21:53.219Z,48.30
2019-05-26T10:24:19.776Z,48.50
2019-05-26T10:26:46.208Z,48.60
2019-05-26T10:29:13.253Z,48.10
2019-05-26T10:31:39.895Z,47.80
2019-05-26T10:34:06.602Z,47.70
2019-05-26T10:36:33.063Z,47.60
2019-05-26T10:38:59.495Z,48.40
2019-05-26T10:41:25.964Z,49.50
2019-05-26T10:43:52.509Z,48.80
2019-05-26T10:46:19.113Z,47.40
2019-05-26T10:48:45.798Z,47.60
2019-05-26T10:51:12.401Z,47.80
2019-05-26T10:53:38.867Z,47.60
2019-05-26T10:56:05.557Z,48.30
2019-05-26T10:58:32.017Z,49.10
2019-05-26T11:00:58.575Z,49.90
2019-05-26T11:03:25.142Z,50.90
2019-05-26T11:05:51.785Z,51.30
2019-05-26T11:08:18.440Z,51.60
2019-05-26T11:10:44.984Z,51.60
2019-05-26T11:13:11.547Z,50.90
2019-05-26T11:15:38.168Z,49.60
2019-05-26T11:18:05.005Z,47.80
2019-05-26T11:20:31.797Z,47.50
2019-05-26T11:22:58.368Z,47.40
2019-05-26T11:25:24.919Z,48.20
2019-05-26T11:27:51.358Z,47.90
2019-05-26T11:30:18.746Z,46.10
2019-05-26T11:32:45.299Z,46.30
2019-05-26T11:35:13.526Z,46.80
2019-05-26T11:37:40.160Z,45.20
2019-05-26T11:40:07.397Z,44.20
2019-05-26T11:42:34.241Z,44.50
2019-05-26T11:45:00.794Z,45.20
2019-05-26T11:47:27.334Z,46.20
2019-05-26T11:49:53.844Z,46.70
2019-05-26T11:52:20.496Z,46.60
2019-05-26T11:54:46.958Z,46.00
2019-05-26T11:57:13.604Z,46.10
2019-05-26T11:59:40.193Z,46.10
2019-05-26T12:02:06.985Z,46.60
2019-05-26T12:04:33.404Z,46.60
2019-05-26T12:06:59.839Z,47.00
2019-05-26T12:09:26.323Z,47.00
2019-05-26T12:11:52.745Z,46.10
2019-05-26T12:14:33.465Z,45.80
2019-05-26T12:16:47.688Z,45.80
2019-05-26T12:19:14.178Z,45.60
2019-05-26T12:21:40.726Z,45.70
2019-05-26T12:24:07.902Z,45.50
2019-05-26T12:26:34.541Z,47.20
2019-05-26T12:29:01.172Z,46.90
2019-05-26T12:31:27.708Z,46.90
2019-05-26T12:33:54.297Z,46.10
2019-05-26T12:36:21.299Z,45.90
2019-05-26T12:38:50.674Z,45.60
2019-05-26T12:41:18.648Z,46.00
2019-05-26T12:43:45.062Z,46.50
2019-05-26T12:46:11.707Z,46.60
2019-05-26T12:48:38.439Z,46.40
2019-05-26T12:51:05.986Z,47.40
2019-05-26T12:53:32.925Z,47.30
2019-05-26T12:56:01.449Z,47.50
2019-05-26T12:58:32.535Z,47.40
2019-05-26T13:00:59.695Z,46.30
2019-05-26T13:03:26.955Z,46.50
2019-05-26T13:05:54.481Z,46.60
2019-05-26T13:08:27.396Z,47.20
2019-05-26T13:10:58.002Z,47.80
2019-05-26T13:13:25.197Z,47.90
2019-05-26T13:15:55.667Z,47.50
2019-05-26T13:18:22.386Z,48.10
2019-05-26T13:20:49.045Z,48.00
2019-05-26T13:23:16.195Z,47.00
2019-05-26T13:25:42.949Z,47.80
2019-05-26T13:28:09.683Z,48.40
2019-05-26T13:30:36.313Z,48.40
2019-05-26T13:33:03.232Z,47.70
2019-05-26T13:35:29.863Z,47.90
2019-05-26T13:37:56.428Z,48.20
2019-05-26T13:40:25.058Z,48.10
2019-05-26T13:42:52.611Z,48.30
2019-05-26T13:45:22.739Z,48.50
2019-05-26T13:47:48.624Z,48.70
2019-05-26T13:50:15.731Z,48.50
2019-05-26T13:52:42.625Z,48.00
2019-05-26T13:55:09.960Z,47.60
2019-05-26T13:57:38.442Z,48.00
2019-05-26T14:00:09.115Z,47.80
2019-05-26T14:02:36.843Z,48.20
2019-05-26T14:05:08.956Z,48.40
2019-05-26T14:07:35.473Z,49.10
2019-05-26T14:10:03.403Z,49.50
2019-05-26T14:12:29.977Z,49.00
2019-05-26T14:14:56.750Z,48.90
2019-05-26T14:17:25.372Z,48.80
2019-05-26T14:19:54.028Z,49.10
2019-05-26T14:22:20.358Z,49.20
2019-05-26T14:24:54.073Z,49.00
2019-05-26T14:27:15.237Z,48.30
2019-05-26T14:29:41.838Z,48.90
2019-05-26T14:32:08.778Z,49.30
2019-05-26T14:34:35.447Z,48.90
2019-05-26T14:37:02.177Z,49.50
2019-05-26T14:39:28.645Z,49.70
2019-05-26T14:41:55.375Z,49.30
2019-05-26T14:44:22.334Z,49.10
2019-05-26T14:46:48.926Z,49.10
2019-05-26T14:49:15.657Z,49.80
2019-05-26T14:51:42.208Z,49.60
2019-05-26T14:54:08.654Z,49.50
2019-05-26T14:56:35.325Z,49.00
2019-05-26T14:59:04.015Z,49.70
2019-05-26T15:01:30.486Z,49.50
2019-05-26T15:03:57.004Z,49.50
2019-05-26T15:06:24.886Z,49.70
2019-05-26T15:08:51.312Z,49.50
2019-05-26T15:11:17.874Z,49.50
2019-05-26T15:13:44.628Z,49.50
2019-05-26T15:16:12.160Z,49.80
2019-05-26T15:18:38.538Z,49.90
2019-05-26T15:21:05.247Z,50.70
2019-05-26T15:23:33.846Z,51.00
2019-05-26T15:26:00.527Z,51.40
2019-05-26T15:28:27.088Z,51.40
2019-05-26T15:30:55.412Z,51.20
2019-05-26T15:33:22.994Z,51.10
2019-05-26T15:35:49.540Z,51.70
2019-05-26T15:38:16.057Z,52.20
2019-05-26T15:40:42.572Z,51.90
2019-05-26T15:43:09.553Z,51.90
2019-05-26T15:45:36.351Z,51.60
2019-05-26T15:48:04.416Z,51.40
2019-05-26T15:50:31.049Z,52.10
2019-05-26T15:52:57.538Z,52.50
2019-05-26T15:55:24.191Z,52.00
2019-05-26T15:57:50.837Z,51.60
2019-05-26T16:00:18.135Z,51.30
2019-05-26T16:02:44.998Z,51.70
2019-05-26T16:05:12.366Z,52.40
2019-05-26T16:07:42.273Z,52.30
2019-05-26T16:10:09.329Z,51.90
2019-05-26T16:12:35.955Z,51.50
2019-05-26T16:15:04.896Z,51.40
2019-05-26T16:17:31.995Z,51.70
2019-05-26T16:19:58.774Z,51.70
2019-05-26T16:22:25.306Z,51.90
2019-05-26T16:24:51.953Z,51.50
2019-05-26T16:27:19.874Z,51.80
2019-05-26T16:29:46.902Z,52.00
2019-05-26T16:32:13.501Z,51.70
2019-05-26T16:34:39.980Z,50.80
2019-05-26T16:37:06.599Z,50.40
2019-05-26T16:39:36.985Z,50.90
2019-05-26T16:42:01.711Z,51.60
2019-05-26T16:44:28.154Z,52.40
2019-05-26T16:46:56.784Z,52.50
2019-05-26T16:49:24.356Z,51.90
2019-05-26T16:51:51.307Z,52.40
2019-05-26T16:54:17.935Z,52.60
2019-05-26T16:56:44.490Z,52.30
2019-05-26T16:59:11.901Z,52.30
2019-05-26T17:01:38.773Z,52.20
2019-05-26T17:04:08.383Z,52.30
2019-05-26T17:06:35.114Z,52.20
2019-05-26T17:09:01.775Z,52.00
2019-05-26T17:11:29.427Z,51.90
2019-05-26T17:13:58.258Z,51.90
2019-05-26T17:16:27.184Z,52.20
2019-05-26T17:18:56.162Z,52.50
2019-05-26T17:21:28.884Z,52.50
2019-05-26T17:23:55.955Z,52.40
2019-05-26T17:26:22.804Z,52.50
2019-05-26T17:28:49.760Z,52.70
2019-05-26T17:31:19.129Z,53.20
2019-05-26T17:33:45.650Z,52.90
2019-05-26T17:36:14.415Z,52.70
2019-05-26T17:38:41.008Z,52.50
2019-05-26T17:41:08.010Z,53.00
2019-05-26T17:43:34.804Z,53.20
2019-05-26T17:46:01.480Z,53.40
2019-05-26T17:48:29.230Z,53.40
2019-05-26T17:50:55.964Z,53.30
2019-05-26T17:53:22.530Z,53.20
2019-05-26T17:55:49.322Z,53.00
2019-05-26T17:58:16.277Z,53.60
2019-05-26T18:00:43.174Z,54.40
2019-05-26T18:03:09.946Z,53.60
2019-05-26T18:05:36.976Z,54.40
2019-05-26T18:08:03.613Z,54.50
2019-05-26T18:10:30.566Z,54.30
2019-05-26T18:12:57.624Z,54.20
2019-05-26T18:15:25.361Z,54.70
2019-05-26T18:17:52.764Z,54.40
2019-05-26T18:20:19.537Z,54.50
2019-05-26T18:22:46.400Z,54.60
2019-05-26T18:25:16.596Z,54.60
2019-05-26T18:27:43.801Z,53.90
2019-05-26T18:30:11.675Z,53.30
2019-05-26T18:32:39.912Z,53.80
2019-05-26T18:35:08.075Z,53.70
2019-05-26T18:37:36.664Z,53.70
2019-05-26T18:40:07.240Z,54.40
2019-05-26T18:42:33.836Z,53.50
2019-05-26T18:45:00.564Z,53.70
2019-05-26T18:47:27.388Z,53.10
2019-05-26T18:49:54.530Z,53.40
2019-05-26T18:52:21.933Z,54.70
2019-05-26T18:54:48.749Z,54.80
2019-05-26T18:57:15.491Z,54.90
2019-05-26T18:59:44.473Z,54.40
2019-05-26T19:02:11.939Z,54.50
2019-05-26T19:04:38.642Z,55.40
2019-05-26T19:07:05.247Z,54.70
2019-05-26T19:09:32.199Z,54.50
2019-05-26T19:11:59.034Z,54.30
2019-05-26T19:14:25.767Z,54.50
2019-05-26T19:16:52.483Z,54.40
2019-05-26T19:19:19.736Z,55.20
2019-05-26T19:21:46.689Z,56.20
2019-05-26T19:24:13.332Z,56.90
2019-05-26T19:26:40.338Z,56.90
2019-05-26T19:29:16.318Z,57.50
2019-05-26T19:31:43.233Z,56.60
2019-05-26T19:34:10.037Z,56.80
2019-05-26T19:36:36.639Z,57.50
2019-05-26T19:39:06.707Z,57.50
2019-05-26T19:41:33.741Z,58.90
2019-05-26T19:44:00.451Z,59.10
2019-05-26T19:46:27.305Z,59.50
2019-05-26T19:48:55.381Z,59.50
2019-05-26T19:51:22.279Z,60.90
2019-05-26T19:53:50.303Z,60.40
2019-05-26T19:56:17.259Z,60.80
2019-05-26T19:58:44.146Z,60.50
2019-05-26T20:01:11.159Z,60.10
2019-05-26T20:03:38.375Z,60.00
2019-05-26T20:06:05.543Z,60.70
2019-05-26T20:08:32.596Z,61.60
2019-05-26T20:10:59.282Z,60.50
2019-05-26T20:13:26.178Z,61.80
2019-05-26T20:15:53.268Z,62.70
2019-05-26T20:18:20.215Z,62.90
2019-05-26T20:20:47.626Z,63.10
2019-05-26T20:23:14.541Z,63.30
2019-05-26T20:25:44.268Z,63.40
2019-05-26T20:28:11.966Z,63.70
2019-05-26T20:30:39.094Z,63.30
2019-05-26T20:33:06.005Z,64.10
2019-05-26T20:35:32.812Z,64.30
2019-05-26T20:37:59.697Z,64.70
2019-05-26T20:40:26.574Z,65.90
2019-05-26T20:42:55.058Z,69.00
2019-05-26T20:45:23.229Z,73.80
2019-05-26T20:47:50.544Z,78.10
2019-05-26T20:50:28.494Z,80.60
2019-05-26T20:52:47.654Z,81.60
2019-05-26T20:55:15.304Z,81.30
2019-05-26T20:57:54.325Z,81.50
2019-05-26T21:00:24.461Z,81.30
2019-05-26T21:02:51.585Z,80.70
2019-05-26T21:05:18.633Z,80.70
2019-05-26T21:07:48.579Z,81.00
2019-05-26T21:10:15.891Z,81.50
2019-05-26T21:12:43.860Z,82.70
2019-05-26T21:15:11.654Z,83.00
2019-05-26T21:17:44.021Z,84.90
2019-05-26T21:20:11.970Z,85.30
2019-05-26T21:22:38.911Z,85.70
2019-05-26T21:25:09.038Z,86.90
2019-05-26T21:27:35.930Z,86.50
2019-05-26T21:30:14.992Z,86.40
2019-05-26T21:32:42.183Z,85.60
2019-05-26T21:35:10.656Z,86.80
2019-05-26T21:37:39.628Z,86.90
2019-05-26T21:40:26.760Z,88.50
2019-05-26T21:42:58.160Z,88.60
2019-05-26T21:45:28.056Z,86.70
2019-05-26T21:47:57.412Z,86.20
2019-05-26T21:50:34.800Z,87.10
2019-05-26T21:52:59.985Z,86.90
2019-05-26T21:55:26.678Z,87.70
2019-05-26T21:58:07.437Z,88.10
2019-05-26T22:00:37.205Z,88.00
2019-05-26T22:03:05.612Z,88.00
2019-05-26T22:05:33.784Z,87.60
2019-05-26T22:08:00.867Z,88.50
2019-05-26T22:10:27.583Z,89.30
2019-05-26T22:12:54.410Z,88.90
2019-05-26T22:15:21.494Z,88.90
2019-05-26T22:17:48.287Z,89.40
2019-05-26T22:20:15.892Z,90.40
2019-05-26T22:22:42.631Z,90.10
2019-05-26T22:25:09.767Z,89.70
2019-05-26T22:27:36.827Z,90.30
2019-05-26T22:30:08.729Z,90.00
2019-05-26T22:32:35.845Z,90.10
2019-05-26T22:35:05.694Z,90.10
2019-05-26T22:37:32.591Z,90.00
2019-05-26T22:40:00.147Z,90.20
2019-05-26T22:42:26.849Z,89.20
2019-05-26T22:44:53.507Z,90.30
2019-05-26T22:47:20.684Z,90.50
2019-05-26T22:49:47.497Z,90.50
2019-05-26T22:52:17.550Z,90.30
2019-05-26T22:54:42.841Z,89.70
2019-05-26T22:57:09.746Z,90.40
2019-05-26T22:59:36.512Z,90.40
2019-05-26T23:02:03.850Z,90.80
2019-05-26T23:04:30.637Z,90.20
2019-05-26T23:06:57.284Z,90.50
2019-05-26T23:09:23.810Z,91.00
2019-05-26T23:11:50.400Z,91.20
2019-05-26T23:14:17.017Z,90.70
2019-05-26T23:16:44.301Z,90.50
2019-05-26T23:19:19.177Z,90.50
2019-05-26T23:21:39.645Z,91.00
2019-05-26T23:24:08.729Z,91.60
2019-05-26T23:26:35.493Z,91.20
2019-05-26T23:29:02.524Z,90.90
2019-05-26T23:31:29.373Z,90.90
2019-05-26T23:33:56.409Z,90.70
2019-05-26T23:36:25.053Z,90.90
2019-05-26T23:39:01.495Z,90.40
2019-05-26T23:41:29.811Z,90.90
2019-05-26T23:43:56.653Z,91.00
2019-05-26T23:46:23.937Z,91.20
2019-05-26T23:48:51.107Z,91.10
2019-05-26T23:51:19.285Z,90.90
2019-05-26T23:53:46.435Z,91.10
2019-05-26T23:56:13.273Z,91.60
2019-05-26T23:58:40.100Z,90.90
